Time;durP1;ratioP1;P1;durP2;ratioP2;P2;SDS_P1;SDS_P2;PMS_P1;PMS_P2;Temp;Humidity;BMP_temperature;BMP_pressure;BME280_temperature;BME280_humidity;BME280_pressure;Samples;Min_cycle;Max_cycle;Signal;HPM_P1;HPM_P2
2023/01/23 00:01:39;;;;;;;18.57;11.87;;;1.40;99.90;;;-141.84;86.86;18728.72;5052996;28;20225;-64
2023/01/23 00:04:08;;;;;;;18.97;12.57;;;1.40;99.90;;;-141.84;86.51;18753.09;5052969;28;20217;-64
2023/01/23 00:06:36;;;;;;;16.83;11.60;;;1.40;99.90;;;-141.84;86.50;18761.22;5047096;28;20714;-64
2023/01/23 00:09:06;;;;;;;17.60;12.00;;;1.40;99.90;;;-141.84;85.96;18753.09;5033055;28;20249;-63
2023/01/23 00:11:34;;;;;;;16.80;11.80;;;1.50;99.90;;;-141.84;85.69;18773.41;5032954;28;20257;-63
2023/01/23 00:14:03;;;;;;;17.00;11.97;;;1.50;99.90;;;-141.84;85.79;18767.31;5033628;28;20245;-64
2023/01/23 00:16:33;;;;;;;18.07;12.10;;;1.50;99.90;;;-141.84;85.42;18767.31;5032988;28;20677;-63
2023/01/23 00:19:01;;;;;;;17.53;11.93;;;1.50;99.90;;;-141.84;85.33;18755.13;5032854;28;20240;-62
2023/01/23 00:21:30;;;;;;;19.40;12.40;;;1.50;99.90;;;-141.84;85.26;18789.66;5032793;28;20228;-62
2023/01/23 00:24:01;;;;;;;18.60;12.47;;;1.50;99.90;;;-141.84;85.10;18738.88;5032734;28;20222;-64
2023/01/23 00:26:33;;;;;;;18.80;12.73;;;1.60;99.90;;;-141.84;85.45;18765.28;5032764;28;20216;-62
2023/01/23 00:29:01;;;;;;;19.53;11.73;;;1.60;99.90;;;-141.84;85.66;18761.22;5039905;28;20196;-64
2023/01/23 00:31:35;;;;;;;18.93;12.53;;;1.50;99.90;;;-141.84;85.54;18738.88;5052486;28;20225;-63
2023/01/23 00:34:06;;;;;;;18.47;12.43;;;1.50;99.90;;;-141.84;85.72;18755.13;5052629;28;20241;-64
2023/01/23 00:36:37;;;;;;;20.27;13.07;;;1.50;99.90;;;-141.84;85.97;18761.22;5052458;28;20229;-64
2023/01/23 00:39:16;;;;;;;18.80;12.40;;;1.50;99.90;;;-141.84;85.59;18753.09;5052191;28;20618;-64
2023/01/23 00:41:46;;;;;;;21.03;13.03;;;1.60;99.90;;;-141.84;85.33;18765.28;5052284;28;20626;-64
2023/01/23 00:44:16;;;;;;;20.63;12.57;;;1.60;99.90;;;-141.84;85.61;18749.03;5052332;28;20216;-64
2023/01/23 00:46:44;;;;;;;20.03;13.13;;;1.50;99.90;;;-141.84;85.66;18751.06;5046075;28;20202;-62
2023/01/23 00:49:13;;;;;;;19.57;12.40;;;1.50;99.90;;;-141.84;85.97;18769.34;5032366;28;20233;-64
2023/01/23 00:51:41;;;;;;;19.17;13.00;;;1.40;99.90;;;-141.84;85.26;18755.13;5032302;28;20238;-63
2023/01/23 00:54:10;;;;;;;20.23;12.83;;;1.50;99.90;;;-141.84;85.22;18765.28;5047751;28;20234;-64
2023/01/23 00:56:38;;;;;;;22.37;13.37;;;1.50;99.90;;;-141.84;85.56;18736.84;5051783;28;20251;-63
2023/01/23 00:59:07;;;;;;;20.57;13.60;;;1.40;99.90;;;-141.84;85.41;18763.25;5052407;28;20571;-63
2023/01/23 01:01:36;;;;;;;21.63;14.30;;;1.40;99.90;;;-141.84;85.68;18777.47;5051634;28;20237;-63
2023/01/23 01:04:04;;;;;;;20.30;12.60;;;1.50;99.90;;;-141.84;85.60;18755.13;5051944;28;20278;-63
2023/01/23 01:06:33;;;;;;;19.10;12.70;;;1.50;99.90;;;-141.84;85.65;18749.03;5046659;28;20234;-63
2023/01/23 01:09:01;;;;;;;21.73;12.53;;;1.40;99.90;;;-141.84;85.54;18793.72;5030811;28;20222;-63
2023/01/23 01:11:29;;;;;;;22.77;13.73;;;1.50;99.90;;;-141.84;85.50;18732.78;5032005;28;20593;-64
2023/01/23 01:13:58;;;;;;;19.33;12.83;;;1.40;99.90;;;-141.84;85.38;18744.97;5031896;28;20226;-63
2023/01/23 01:16:27;;;;;;;22.20;14.03;;;1.50;99.90;;;-141.84;85.43;18765.28;5031720;28;20230;-62
2023/01/23 01:18:55;;;;;;;18.93;12.23;;;1.50;99.90;;;-141.84;85.51;18744.97;5031363;28;20551;-63
2023/01/23 01:21:24;;;;;;;22.33;13.47;;;1.60;99.90;;;-141.84;85.26;18749.03;5031610;28;20736;-63
2023/01/23 01:23:52;;;;;;;22.17;13.10;;;1.60;99.90;;;-141.84;85.42;18769.34;5031448;28;20224;-63
2023/01/23 01:26:21;;;;;;;21.03;13.03;;;1.50;99.90;;;-141.84;85.55;18747.00;5047515;28;20206;-62
2023/01/23 01:28:50;;;;;;;21.43;13.37;;;1.50;99.90;;;-141.84;85.41;18757.16;5051373;28;20207;-62
2023/01/23 01:31:18;;;;;;;21.50;13.60;;;1.50;99.90;;;-141.84;85.28;18744.97;5051261;28;20231;-63
2023/01/23 01:33:48;;;;;;;20.53;12.60;;;1.50;99.90;;;-141.84;85.31;18753.09;5051248;28;20724;-63
2023/01/23 01:36:20;;;;;;;23.67;13.00;;;1.50;99.90;;;-141.84;85.57;18757.16;5051206;28;20229;-62
2023/01/23 01:38:48;;;;;;;23.07;13.43;;;1.50;99.90;;;-141.84;85.39;18749.03;5050887;28;20232;-63
2023/01/23 01:41:17;;;;;;;22.63;13.50;;;1.50;99.90;;;-141.84;85.74;18751.06;5051147;28;20197;-63
2023/01/23 01:43:46;;;;;;;21.33;13.10;;;1.50;99.90;;;-141.84;85.42;18775.44;5038698;28;20206;-62
2023/01/23 01:46:22;;;;;;;19.07;12.77;;;1.50;99.90;;;-141.84;85.68;18779.50;5030930;28;20252;-63
2023/01/23 01:49:06;;;;;;;21.33;13.53;;;1.50;99.90;;;-141.84;85.83;18749.03;5031369;28;20237;-63
2023/01/23 01:51:42;;;;;;;22.07;13.80;;;1.50;99.90;;;-141.84;86.09;18744.97;5031187;28;20717;-63
2023/01/23 01:54:23;;;;;;;24.73;13.60;;;1.50;99.90;;;-141.84;86.49;18740.91;5046371;28;20243;-62
2023/01/23 01:56:58;;;;;;;21.83;13.47;;;1.40;99.90;;;-141.84;86.89;18751.06;5050729;28;20225;-63
2023/01/23 01:59:32;;;;;;;26.63;14.10;;;1.40;99.90;;;-141.84;86.71;18742.94;5050479;28;20696;-63
2023/01/23 02:02:07;;;;;;;29.17;14.70;;;1.50;99.90;;;-141.84;86.19;18761.22;5051322;28;20193;-62
2023/01/23 02:04:44;;;;;;;22.70;13.43;;;1.50;99.90;;;-141.84;86.66;18751.06;5051005;28;20220;-63
2023/01/23 02:07:22;;;;;;;25.07;13.33;;;1.50;99.90;;;-141.84;86.23;18751.06;5043702;28;20232;-62
2023/01/23 02:09:50;;;;;;;25.03;14.27;;;1.50;99.90;;;-141.84;85.72;18728.72;5036070;28;20230;-63
2023/01/23 02:12:18;;;;;;;24.70;14.53;;;1.60;99.90;;;-141.84;85.83;18751.06;5030865;28;20236;-62
2023/01/23 02:14:47;;;;;;;27.37;15.20;;;1.50;99.90;;;-141.84;86.07;18755.13;5030458;28;20222;-63
2023/01/23 02:17:15;;;;;;;25.80;14.03;;;1.50;99.90;;;-141.84;86.23;18781.53;5030126;28;20705;-62
2023/01/23 02:19:58;;;;;;;23.67;14.70;;;1.50;99.90;;;-141.84;86.30;18726.69;5029663;28;20279;-62
2023/01/23 02:22:44;;;;;;;27.63;14.73;;;1.50;99.90;;;-141.84;86.80;18734.81;5043433;28;20237;-62
2023/01/23 02:25:26;;;;;;;25.43;13.80;;;1.40;99.90;;;-141.84;86.91;18753.09;5050325;28;20709;-63
2023/01/23 02:27:55;;;;;;;23.67;14.23;;;1.40;99.90;;;-141.84;86.50;18763.25;5050278;28;20229;-62
2023/01/23 02:30:24;;;;;;;27.67;15.83;;;1.50;99.90;;;-141.84;86.59;18702.28;5050583;28;20248;-63
2023/01/23 02:32:52;;;;;;;28.57;15.37;;;1.50;99.90;;;-141.84;86.90;18720.59;5050535;28;20236;-65
2023/01/23 02:35:30;;;;;;;29.80;15.70;;;1.50;99.90;;;-141.84;87.09;18755.13;5050279;28;20225;-65
2023/01/23 02:38:04;;;;;;;26.07;14.40;;;1.50;99.90;;;-141.84;87.52;18759.19;5050829;28;20206;-65
2023/01/23 02:40:35;;;;;;;27.50;15.33;;;1.50;99.90;;;-141.84;87.26;18732.78;5050018;28;20233;-63
2023/01/23 02:43:07;;;;;;;29.03;15.17;;;1.40;99.90;;;-141.84;87.13;18744.97;5050009;28;20290;-62
2023/01/23 02:45:36;;;;;;;26.40;14.37;;;1.50;99.90;;;-141.84;87.19;18755.13;5050277;28;20618;-63
2023/01/23 02:48:06;;;;;;;31.40;16.23;;;1.50;99.90;;;-141.84;87.38;18761.22;5050188;28;20225;-63
2023/01/23 02:50:35;;;;;;;28.30;15.23;;;1.60;99.90;;;-141.84;87.56;18738.88;5050349;28;20673;-63
2023/01/23 02:53:04;;;;;;;27.93;14.70;;;1.60;99.90;;;-141.84;87.70;18740.91;5050270;28;20212;-63
2023/01/23 02:55:33;;;;;;;27.50;15.50;;;1.60;99.90;;;-141.84;87.63;18767.31;5049705;28;20248;-61
2023/01/23 03:00:46;;;;;;;29.53;15.80;;;1.70;99.90;;;-141.84;87.05;18738.88;5049745;28;20225;-62
2023/01/23 03:03:15;;;;;;;28.50;14.83;;;1.70;99.90;;;-141.84;87.35;18718.56;5050126;28;20228;-62
2023/01/23 03:05:43;;;;;;;31.83;15.87;;;1.60;99.90;;;-141.84;87.30;18759.19;5049646;28;20799;-62
2023/01/23 03:08:11;;;;;;;26.23;14.87;;;1.60;99.90;;;-141.84;87.37;18749.03;5032138;28;20206;-63
2023/01/23 03:10:40;;;;;;;26.17;14.20;;;1.60;99.90;;;-141.84;87.69;18761.22;5010152;28;20233;-62
2023/01/23 03:13:10;;;;;;;30.27;15.43;;;1.60;99.90;;;-141.84;87.24;18738.88;5025751;28;20226;-62
2023/01/23 03:15:40;;;;;;;29.97;15.17;;;1.60;99.90;;;-141.84;87.07;18789.66;5029872;28;20243;-63
2023/01/23 03:18:10;;;;;;;31.23;15.63;;;1.70;99.90;;;-141.84;86.50;18763.25;5039914;28;20229;-63
2023/01/23 03:20:40;;;;;;;33.43;15.20;;;1.70;99.90;;;-141.84;86.50;18775.44;5049625;28;20312;-62
2023/01/23 03:23:08;;;;;;;29.10;15.13;;;1.60;99.90;;;-141.84;87.03;18779.50;5049877;28;20201;-63
2023/01/23 03:25:36;;;;;;;29.37;14.23;;;1.60;99.90;;;-141.84;87.65;18761.22;5049547;28;20706;-63
2023/01/23 03:30:11;;;;;;;29.20;15.13;;;1.50;99.90;;;-141.84;87.89;18744.97;5049550;28;20229;-62
2023/01/23 03:30:52;;;;;;;28.17;15.37;;;1.50;99.90;;;-141.84;88.19;18749.03;5049481;28;20240;-64
2023/01/23 03:33:21;;;;;;;31.83;16.03;;;1.60;99.90;;;-141.84;87.82;18736.84;5051458;28;20294;-62
2023/01/23 03:35:50;;;;;;;29.47;14.83;;;1.60;99.90;;;-141.84;87.59;18765.28;5053169;28;20234;-62
2023/01/23 03:38:18;;;;;;;29.77;14.43;;;1.70;99.90;;;-141.84;87.22;18722.63;5053045;28;20545;-63
2023/01/23 03:43:35;;;;;;;27.30;14.47;;;1.60;99.90;;;-141.84;87.84;18755.13;5073310;28;20248;-62
2023/01/23 03:46:04;;;;;;;36.20;16.57;;;1.60;99.90;;;-141.84;87.99;18688.06;5073068;28;20603;-62
2023/01/23 03:48:33;;;;;;;33.00;16.40;;;1.50;99.90;;;-141.84;87.43;18749.03;5072758;28;20221;-63
2023/01/23 03:51:01;;;;;;;30.10;15.60;;;1.60;99.90;;;-141.84;87.49;18751.06;5046948;28;20397;-64
2023/01/23 03:53:29;;;;;;;28.50;16.20;;;1.60;99.90;;;-141.84;87.83;18720.59;5032873;28;20248;-63
2023/01/23 03:55:58;;;;;;;29.77;15.33;;;1.60;99.90;;;-141.84;87.52;18747.00;5033472;28;20713;-63
2023/01/23 03:58:26;;;;;;;31.20;15.87;;;1.60;99.90;;;-141.84;87.26;18751.06;5033180;28;20241;-62
2023/01/23 04:00:54;;;;;;;29.27;16.17;;;1.60;99.90;;;-141.84;87.52;18726.69;5033421;28;20257;-62
2023/01/23 04:03:23;;;;;;;29.93;15.67;;;1.60;99.90;;;-141.84;87.40;18732.78;5033222;28;20236;-64
2023/01/23 04:05:57;;;;;;;30.93;15.47;;;1.60;99.90;;;-141.84;87.46;18771.38;5033223;28;20218;-64
2023/01/23 04:08:25;;;;;;;34.53;16.53;;;1.60;99.90;;;-141.84;87.78;18755.13;5033151;28;20190;-62
2023/01/23 04:11:05;;;;;;;35.50;16.20;;;1.50;99.90;;;-141.84;88.17;18738.88;5033621;28;20562;-63
2023/01/23 04:13:34;;;;;;;32.47;15.33;;;1.50;99.90;;;-141.84;88.08;18751.06;5032396;28;20221;-63
2023/01/23 04:16:04;;;;;;;30.03;15.00;;;1.50;99.90;;;-141.84;88.11;18753.09;5032807;28;20260;-63
2023/01/23 04:18:33;;;;;;;31.13;15.27;;;1.50;99.90;;;-141.84;88.05;18749.03;5032707;28;20232;-63
2023/01/23 04:21:03;;;;;;;31.63;16.00;;;1.50;99.90;;;-141.84;87.90;18728.72;5032734;28;20248;-62
2023/01/23 04:23:31;;;;;;;32.77;15.57;;;1.60;99.90;;;-141.84;87.96;18761.22;5032605;28;20209;-62
2023/01/23 04:25:59;;;;;;;30.17;16.47;;;1.50;99.90;;;-141.84;88.28;18738.88;5033100;28;20204;-62
2023/01/23 04:28:28;;;;;;;34.00;15.60;;;1.50;99.90;;;-141.84;88.36;18708.41;5032429;28;20236;-62
2023/01/23 04:30:56;;;;;;;31.50;14.77;;;1.60;99.90;;;-141.84;88.13;18738.88;5032387;28;20382;-62
2023/01/23 04:33:27;;;;;;;28.10;15.37;;;1.60;99.90;;;-141.84;87.97;18751.06;5012665;28;20725;-62
2023/01/23 04:35:58;;;;;;;31.53;17.17;;;1.60;99.90;;;-141.84;87.85;18773.41;5012445;28;20222;-63
2023/01/23 04:38:30;;;;;;;34.23;16.03;;;1.60;99.90;;;-141.84;87.89;18724.66;5012879;28;20191;-64
2023/01/23 04:40:59;;;;;;;31.17;16.20;;;1.50;99.90;;;-141.84;88.35;18718.56;5017792;28;20183;-62
2023/01/23 04:43:27;;;;;;;30.83;16.37;;;1.50;99.90;;;-141.84;88.58;18749.03;5031947;28;20233;-62
2023/01/23 04:45:56;;;;;;;30.63;15.37;;;1.50;99.90;;;-141.84;88.33;18722.63;5022741;28;20590;-63
2023/01/23 04:48:25;;;;;;;31.17;15.37;;;1.50;99.90;;;-141.84;88.19;18740.91;5012687;28;20249;-63
2023/01/23 04:50:53;;;;;;;30.47;15.63;;;1.50;99.90;;;-141.84;88.81;18720.59;5012625;28;20227;-63
2023/01/23 04:53:21;;;;;;;34.03;16.33;;;1.50;99.90;;;-141.84;88.26;18726.69;5021240;28;20659;-64
2023/01/23 04:55:50;;;;;;;32.17;15.93;;;1.60;99.90;;;-141.84;88.31;18744.97;5032387;28;20253;-63
2023/01/23 04:58:20;;;;;;;34.90;16.13;;;1.60;99.90;;;-141.84;88.18;18740.91;5032011;28;20241;-63
2023/01/23 05:00:48;;;;;;;28.80;15.20;;;1.50;99.90;;;-141.84;88.49;18716.53;5031928;28;20242;-62
2023/01/23 05:03:17;;;;;;;32.53;15.70;;;1.50;99.90;;;-141.84;88.60;18730.75;5032115;28;20225;-62
2023/01/23 05:05:47;;;;;;;34.33;16.50;;;1.50;99.90;;;-141.84;88.63;18724.66;5032127;28;20226;-63
2023/01/23 05:08:15;;;;;;;32.43;16.57;;;1.50;99.90;;;-141.84;88.48;18700.25;5031495;28;20214;-64
2023/01/23 05:10:44;;;;;;;37.57;17.70;;;1.50;99.90;;;-141.84;88.33;18716.53;5032254;28;20641;-62
2023/01/23 05:13:14;;;;;;;35.07;17.67;;;1.60;99.90;;;-141.84;88.54;18720.59;5031804;28;20227;-63
2023/01/23 05:15:42;;;;;;;34.47;16.27;;;1.50;99.90;;;-141.84;88.29;18771.38;5031469;28;20226;-63
2023/01/23 05:18:10;;;;;;;32.73;16.57;;;1.60;99.90;;;-141.84;88.08;18718.56;5031931;28;20287;-63
2023/01/23 05:20:38;;;;;;;34.93;16.30;;;1.50;99.90;;;-141.84;88.15;18744.97;5031707;28;20226;-62
2023/01/23 05:23:06;;;;;;;34.00;17.80;;;1.50;99.90;;;-141.84;88.24;18692.13;5031923;28;20210;-64
2023/01/23 05:25:34;;;;;;;40.60;17.47;;;1.50;99.90;;;-141.84;88.62;18720.59;5031427;28;20233;-63
2023/01/23 05:28:03;;;;;;;32.50;16.40;;;1.50;99.90;;;-141.84;88.66;18700.25;5024445;28;20214;-63
2023/01/23 05:30:33;;;;;;;36.33;16.57;;;1.50;99.90;;;-141.84;88.52;18714.50;5017678;28;20224;-62
2023/01/23 05:33:01;;;;;;;34.93;17.23;;;1.50;99.90;;;-141.84;88.18;18751.06;5031586;28;20309;-64
2023/01/23 05:35:29;;;;;;;29.37;16.10;;;1.60;99.90;;;-141.84;87.69;18740.91;5031496;28;20213;-61
2023/01/23 05:37:57;;;;;;;34.70;17.20;;;1.60;99.90;;;-141.84;87.73;18740.91;5031336;28;20232;-65
2023/01/23 05:40:26;;;;;;;33.30;15.13;;;1.60;99.90;;;-141.84;87.90;18763.25;5031175;28;20233;-62
2023/01/23 05:42:54;;;;;;;35.97;17.03;;;1.60;99.90;;;-141.84;87.70;18738.88;5030772;28;20589;-63
2023/01/23 05:45:22;;;;;;;41.23;17.63;;;1.60;99.90;;;-141.84;87.67;18749.03;5031086;28;20233;-62
2023/01/23 05:47:54;;;;;;;33.67;16.97;;;1.60;99.90;;;-141.84;87.26;18726.69;5031274;28;20229;-61
2023/01/23 05:50:24;;;;;;;31.90;16.97;;;1.60;99.90;;;-141.84;87.76;18710.44;5016880;28;20296;-63
2023/01/23 05:52:52;;;;;;;33.50;16.57;;;1.60;99.90;;;-141.84;87.73;18718.56;5016434;28;20198;-63
2023/01/23 05:55:20;;;;;;;35.90;17.57;;;1.60;99.90;;;-141.84;87.69;18694.16;5030159;28;20232;-63
2023/01/23 05:57:48;;;;;;;34.43;16.90;;;1.60;99.90;;;-141.84;87.68;18718.56;5030488;28;20242;-63
2023/01/23 06:00:18;;;;;;;36.47;17.57;;;1.60;99.90;;;-141.84;87.88;18698.22;5031305;28;20286;-62
2023/01/23 06:02:47;;;;;;;35.67;17.00;;;1.60;99.90;;;-141.84;88.03;18730.75;5030702;28;20599;-63
2023/01/23 06:05:17;;;;;;;37.53;18.13;;;1.50;99.90;;;-141.84;88.04;18763.25;5031197;28;20546;-63
2023/01/23 06:07:45;;;;;;;33.00;16.60;;;1.50;99.90;;;-141.84;88.19;18710.44;5030765;28;20685;-63
2023/01/23 06:10:13;;;;;;;35.33;17.77;;;1.50;99.90;;;-141.84;88.22;18724.66;5030561;28;20221;-63
2023/01/23 06:12:41;;;;;;;32.23;16.40;;;1.50;99.90;;;-141.84;88.42;18696.19;5030509;28;20226;-62
2023/01/23 06:15:10;;;;;;;34.50;16.77;;;1.50;99.90;;;-141.84;88.76;18738.88;5030235;28;20229;-63
2023/01/23 06:17:38;;;;;;;37.73;17.73;;;1.50;99.90;;;-141.84;88.52;18749.03;5030286;28;20226;-63
2023/01/23 06:20:11;;;;;;;37.87;17.70;;;1.60;99.90;;;-141.84;87.42;18759.19;5031181;28;20621;-62
2023/01/23 06:22:40;;;;;;;34.27;17.53;;;1.70;99.90;;;-141.84;87.22;18728.72;5030297;28;20226;-66
2023/01/23 06:25:09;;;;;;;35.90;17.50;;;1.60;99.90;;;-141.84;87.26;18724.66;5016727;28;20282;-62
2023/01/23 06:27:38;;;;;;;36.93;17.23;;;1.60;99.90;;;-141.84;87.29;18728.72;5010824;28;20230;-63
2023/01/23 06:30:08;;;;;;;35.63;17.60;;;1.60;99.90;;;-141.84;87.12;18724.66;5013438;28;20230;-63
2023/01/23 06:32:36;;;;;;;33.30;16.43;;;1.60;99.90;;;-141.84;86.98;18722.63;5030640;28;20598;-62
2023/01/23 06:35:05;;;;;;;35.23;18.07;;;1.60;99.90;;;-141.84;86.93;18773.41;5031208;28;20229;-62
2023/01/23 06:37:33;;;;;;;34.40;17.03;;;1.60;99.90;;;-141.84;86.92;18759.19;5027642;28;20234;-62
2023/01/23 06:40:03;;;;;;;31.73;16.73;;;1.60;99.90;;;-141.84;87.11;18747.00;5010477;28;20227;-62
2023/01/23 06:42:31;;;;;;;33.63;16.50;;;1.60;99.90;;;-141.84;87.31;18744.97;5028047;28;20233;-62
2023/01/23 06:45:00;;;;;;;32.97;16.23;;;1.60;99.90;;;-141.84;87.67;18692.13;5029124;28;20240;-61
2023/01/23 06:47:28;;;;;;;31.90;16.87;;;1.50;99.90;;;-141.84;88.02;18734.81;5010728;28;20654;-63
2023/01/23 06:49:56;;;;;;;31.43;16.50;;;1.60;99.90;;;-141.84;87.98;18749.03;5011051;28;20218;-63
2023/01/23 06:52:24;;;;;;;33.03;17.87;;;1.60;99.90;;;-141.84;88.11;18747.00;5011216;28;20609;-63
2023/01/23 06:54:52;;;;;;;34.50;16.93;;;1.60;99.90;;;-141.84;88.29;18702.28;5030125;28;20247;-62
2023/01/23 06:57:22;;;;;;;33.63;16.70;;;1.60;99.90;;;-141.84;87.97;18724.66;5029725;28;20238;-63
2023/01/23 06:59:51;;;;;;;34.37;17.50;;;1.70;99.90;;;-141.84;87.71;18734.81;5030031;28;20234;-63
2023/01/23 07:02:19;;;;;;;29.10;16.30;;;1.70;99.90;;;-141.84;87.33;18744.97;5029914;28;20220;-62
2023/01/23 07:04:47;;;;;;;31.30;16.60;;;1.70;99.90;;;-141.84;87.02;18738.88;5030650;28;20559;-62
2023/01/23 07:07:15;;;;;;;28.23;16.00;;;1.70;99.90;;;-141.84;86.25;18757.16;5030087;28;20218;-64
2023/01/23 07:09:43;;;;;;;30.87;16.37;;;1.80;99.90;;;-141.84;85.88;18755.13;5034147;28;20230;-63
2023/01/23 07:12:12;;;;;;;30.53;16.40;;;1.80;99.90;;;-141.84;85.04;18785.59;5033860;28;20237;-61
2023/01/23 07:14:41;;;;;;;28.00;15.23;;;1.90;99.90;;;-141.84;85.51;18765.28;5033833;28;20236;-64
2023/01/23 07:17:09;;;;;;;29.87;15.43;;;1.80;99.90;;;-141.84;85.80;18765.28;5034576;28;20225;-62
2023/01/23 07:19:37;;;;;;;26.33;14.63;;;1.80;99.90;;;-141.84;85.36;18749.03;5033800;28;20327;-63
2023/01/23 07:22:06;;;;;;;28.57;15.87;;;1.80;99.90;;;-141.84;85.15;18753.09;5014226;28;20226;-63
2023/01/23 07:24:34;;;;;;;29.90;15.83;;;1.90;99.90;;;-141.84;84.88;18732.78;5014026;28;20223;-63
2023/01/23 07:27:02;;;;;;;27.20;15.00;;;1.80;99.90;;;-141.84;85.29;18753.09;5013772;28;20226;-63
2023/01/23 07:29:30;;;;;;;27.23;15.67;;;1.80;99.90;;;-141.84;84.95;18761.22;5013940;28;20199;-64
2023/01/23 07:32:00;;;;;;;27.63;15.17;;;1.90;99.90;;;-141.84;84.71;18773.41;5032307;28;20225;-63
2023/01/23 07:34:29;;;;;;;24.87;14.97;;;1.80;99.90;;;-141.84;85.13;18791.69;5025383;28;20325;-64
2023/01/23 07:36:57;;;;;;;31.57;15.47;;;1.80;99.90;;;-141.84;85.90;18742.94;5021278;28;20229;-63
2023/01/23 07:39:25;;;;;;;30.03;15.40;;;1.80;99.90;;;-141.84;85.65;18755.13;5033343;28;20600;-63
2023/01/23 07:41:54;;;;;;;30.43;15.97;;;1.90;99.90;;;-141.84;85.98;18781.53;5027220;28;20226;-62
2023/01/23 07:44:22;;;;;;;29.53;15.50;;;1.90;99.90;;;-141.84;86.37;18742.94;5013377;28;20682;-63
2023/01/23 07:46:51;;;;;;;27.73;14.33;;;1.90;99.90;;;-141.84;85.89;18777.47;5014419;28;20211;-63
2023/01/23 07:49:21;;;;;;;29.23;16.63;;;1.90;99.90;;;-141.84;85.63;18744.97;5013381;28;20231;-63
2023/01/23 07:51:49;;;;;;;25.87;14.77;;;1.90;99.90;;;-141.84;86.11;18755.13;5013601;28;20249;-64
2023/01/23 07:54:17;;;;;;;25.47;15.23;;;1.90;99.90;;;-141.84;85.42;18781.53;5029887;28;20240;-63
2023/01/23 07:56:45;;;;;;;25.73;15.00;;;1.90;99.90;;;-141.84;85.03;18753.09;5033208;28;20702;-63
2023/01/23 07:59:13;;;;;;;26.80;15.17;;;1.90;99.90;;;-141.84;85.60;18749.03;5033146;28;20233;-62
2023/01/23 08:01:41;;;;;;;28.13;15.77;;;2.00;99.90;;;-141.84;85.93;18740.91;5053411;28;20224;-64
2023/01/23 08:04:10;;;;;;;25.97;15.00;;;1.90;99.90;;;-141.84;86.00;18730.75;5052886;28;20236;-63
2023/01/23 08:06:39;;;;;;;29.17;16.37;;;1.90;99.90;;;-141.84;85.79;18747.00;5053109;28;20267;-62
2023/01/23 08:09:07;;;;;;;29.63;16.33;;;2.00;99.90;;;-141.84;85.28;18751.06;5052500;28;20721;-62
2023/01/23 08:11:36;;;;;;;26.73;15.53;;;2.00;99.90;;;-141.84;84.77;18728.72;5052680;28;20647;-62
2023/01/23 08:14:04;;;;;;;30.07;16.17;;;2.00;99.90;;;-141.84;84.31;18785.59;5053594;28;20205;-63
2023/01/23 08:16:32;;;;;;;26.37;15.20;;;2.10;99.90;;;-141.84;84.25;18814.03;5047798;28;20858;-63
2023/01/23 08:19:00;;;;;;;25.93;15.60;;;2.10;99.90;;;-141.84;83.99;18757.16;5032348;28;20796;-64
2023/01/23 08:21:28;;;;;;;26.90;15.70;;;2.00;99.90;;;-141.84;84.40;18747.00;5032990;28;20226;-63
2023/01/23 08:24:01;;;;;;;24.80;14.97;;;2.00;99.90;;;-141.84;83.86;18769.34;5032950;28;20222;-62
2023/01/23 08:26:29;;;;;;;28.77;16.07;;;2.10;99.90;;;-141.84;82.69;18785.59;5032864;28;20209;-63
2023/01/23 08:28:57;;;;;;;25.70;15.30;;;2.10;99.90;;;-141.84;82.82;18779.50;5033067;28;20201;-63
2023/01/23 08:31:25;;;;;;;29.00;16.40;;;2.10;99.90;;;-141.84;82.50;18781.53;5046236;28;20715;-62
2023/01/23 08:33:54;;;;;;;28.07;15.20;;;2.10;99.90;;;-141.84;82.46;18781.53;5052537;28;20314;-63
2023/01/23 08:36:22;;;;;;;27.07;15.73;;;2.10;99.90;;;-141.84;83.11;18791.69;5052635;28;20221;-62
2023/01/23 08:38:51;;;;;;;26.00;15.00;;;2.10;99.90;;;-141.84;83.61;18769.34;5052563;28;20248;-63
2023/01/23 08:41:22;;;;;;;27.70;15.07;;;2.00;99.90;;;-141.84;84.20;18753.09;5052377;28;20673;-63
2023/01/23 08:43:50;;;;;;;27.70;15.47;;;2.00;99.90;;;-141.84;84.05;18789.66;5052712;28;20649;-63
2023/01/23 08:46:18;;;;;;;26.83;15.93;;;2.10;99.90;;;-141.84;83.76;18747.00;5052342;28;20601;-63
2023/01/23 08:48:46;;;;;;;24.90;15.17;;;2.10;99.90;;;-141.84;83.08;18785.59;5052176;28;20234;-64
2023/01/23 08:51:15;;;;;;;28.37;15.43;;;2.10;99.90;;;-141.84;82.57;18805.91;5052237;28;20223;-62
2023/01/23 08:53:43;;;;;;;27.30;15.20;;;2.20;99.90;;;-141.84;82.14;18797.78;5051938;28;20221;-64
2023/01/23 08:56:16;;;;;;;28.00;15.70;;;2.20;99.90;;;-141.84;81.97;18793.72;5052414;28;20260;-63
2023/01/23 08:58:47;;;;;;;26.63;16.33;;;2.20;99.90;;;-141.84;81.82;18803.88;5052681;28;20213;-64
2023/01/23 09:01:17;;;;;;;25.00;15.20;;;2.20;99.90;;;-141.84;82.39;18755.13;5052110;28;20230;-63
2023/01/23 09:03:46;;;;;;;27.83;16.03;;;2.20;99.90;;;-141.84;82.89;18775.44;5052182;28;20803;-64
2023/01/23 09:06:17;;;;;;;28.20;15.43;;;2.20;99.90;;;-141.84;83.32;18805.91;5051631;28;20748;-64
2023/01/23 09:08:46;;;;;;;29.10;16.57;;;2.20;99.90;;;-141.84;83.13;18773.41;5051863;28;20768;-64
2023/01/23 09:11:15;;;;;;;26.10;14.90;;;2.20;99.90;;;-141.84;82.07;18832.34;5052011;28;20280;-63
2023/01/23 09:13:45;;;;;;;29.83;16.20;;;2.30;99.90;;;-141.84;82.21;18801.84;5039852;28;20202;-62
2023/01/23 09:16:15;;;;;;;29.87;17.07;;;2.30;99.90;;;-141.84;81.83;18773.41;5031560;28;20234;-63
2023/01/23 09:18:43;;;;;;;23.47;14.23;;;2.40;99.90;;;-141.84;81.24;18799.81;5031674;28;20288;-63
2023/01/23 09:21:16;;;;;;;28.43;15.87;;;2.40;99.90;;;-141.84;81.72;18781.53;5032152;28;20251;-64
2023/01/23 09:23:44;;;;;;;26.30;15.90;;;2.40;99.90;;;-141.84;80.81;18828.28;5031528;28;20217;-63
2023/01/23 09:26:15;;;;;;;29.50;17.00;;;2.40;99.90;;;-141.84;80.57;18805.91;5033436;28;20218;-63
2023/01/23 09:28:45;;;;;;;27.63;17.00;;;2.40;99.90;;;-141.84;81.17;18809.97;5031370;28;20201;-63
2023/01/23 09:31:15;;;;;;;31.00;17.30;;;2.40;99.90;;;-141.84;81.84;18771.38;5046786;28;20592;-63
2023/01/23 09:33:44;;;;;;;28.97;15.97;;;2.40;99.90;;;-141.84;82.39;18789.66;5051202;28;20237;-64
2023/01/23 09:36:12;;;;;;;29.27;16.33;;;2.40;99.90;;;-141.84;81.97;18820.16;5051101;28;20225;-64
2023/01/23 09:38:40;;;;;;;29.17;16.00;;;2.40;99.90;;;-141.84;80.62;18842.50;5051112;28;20237;-63
2023/01/23 09:41:17;;;;;;;30.97;17.37;;;2.50;99.90;;;-141.84;80.81;18836.41;5057718;28;20199;-63
2023/01/23 09:43:55;;;;;;;28.60;16.43;;;2.50;99.90;;;-141.84;81.36;18797.78;5071481;28;20205;-66
2023/01/23 09:46:32;;;;;;;29.23;15.60;;;2.60;99.90;;;-141.84;81.22;18816.06;5070873;28;20223;-62
2023/01/23 09:49:10;;;;;;;28.27;15.87;;;2.60;99.90;;;-141.84;80.21;18807.94;5071150;28;20220;-63
2023/01/23 09:51:53;;;;;;;28.57;15.77;;;2.60;99.90;;;-141.84;80.20;18826.25;5070765;28;20223;-63
2023/01/23 09:54:37;;;;;;;27.57;15.53;;;2.60;99.90;;;-141.84;80.62;18840.47;5053173;28;20604;-65
2023/01/23 09:57:14;;;;;;;26.80;14.93;;;2.60;99.90;;;-141.84;80.28;18771.38;5050802;28;20234;-63
2023/01/23 09:59:50;;;;;;;30.63;16.60;;;2.60;99.90;;;-141.84;80.32;18809.97;5050700;28;20229;-62
2023/01/23 10:02:29;;;;;;;31.27;15.60;;;2.60;99.90;;;-141.84;80.46;18820.16;5051003;28;20257;-64
2023/01/23 10:05:01;;;;;;;30.03;16.63;;;2.60;99.90;;;-141.84;79.92;18838.44;5051245;28;20187;-64
2023/01/23 10:07:56;;;;;;;29.03;16.77;;;2.70;99.90;;;-141.84;79.95;18852.66;5050365;28;20226;-63
2023/01/23 10:10:55;;;;;;;32.17;16.20;;;2.70;99.90;;;-141.84;79.89;18824.22;5050613;28;20280;-64
2023/01/23 10:13:40;;;;;;;27.80;15.00;;;2.70;99.90;;;-141.84;79.42;18846.56;5050404;28;20293;-64
2023/01/23 10:16:41;;;;;;;27.63;15.70;;;2.80;99.90;;;-141.84;79.84;18860.78;5050476;28;20755;-63
2023/01/23 10:19:46;;;;;;;24.63;14.60;;;2.80;99.90;;;-141.84;78.52;18870.94;5050531;28;20314;-64